Terminal Aerodrome Forecast
Issued by NWS

Current Version | Previous Version | Text Only | Print | Product List | Glossary Off
Versions: 1 2 3 4 5 6 7 8 9 10 11 12 13 14 15 16 17 18 19 20 21

000
FTUS41 KPBZ 091739
TAFHLG
TAF
KHLG 091739Z 0918/1018 20006KT P6SM SCT250
     FM092100 26009KT P6SM OVC080
     FM100200 25012KT 6SM -SHSN OVC015
     FM101300 28012G20KT P6SM OVC025=

USA.gov is the U.S. government's official web portal to all federal, state and local government web resources and services.